Time;durP1;ratioP1;P1;durP2;ratioP2;P2;SDS_P1;SDS_P2;PMS_P1;PMS_P2;Temp;Humidity;BMP_temperature;BMP_pressure;BME280_temperature;BME280_humidity;BME280_pressure;Samples;Min_cycle;Max_cycle;Signal;HPM_P1;HPM_P2
2023/06/25 00:02:23;;;;;;;12.48;9.63;;;19.00;99.90;;;;;;7389258;19;20018;-90
2023/06/25 00:04:49;;;;;;;11.13;9.23;;;19.00;99.90;;;;;;7389499;19;20022;-90
2023/06/25 00:07:17;;;;;;;12.95;9.13;;;18.90;99.90;;;;;;7389155;19;20017;-90
2023/06/25 00:09:56;;;;;;;13.13;9.45;;;18.90;99.90;;;;;;7385866;19;20019;-89
2023/06/25 00:12:22;;;;;;;11.20;9.23;;;18.90;99.90;;;;;;7386635;19;20101;-89
2023/06/25 00:14:49;;;;;;;10.57;9.38;;;18.90;99.90;;;;;;7386404;19;20030;-90
2023/06/25 00:17:17;;;;;;;12.27;9.75;;;18.80;99.90;;;;;;7387306;19;20043;-90
2023/06/25 00:19:46;;;;;;;13.25;9.90;;;18.90;99.90;;;;;;7386692;19;20019;-90
2023/06/25 00:22:13;;;;;;;12.52;9.63;;;18.90;99.90;;;;;;7388548;19;20035;-89
2023/06/25 00:24:40;;;;;;;11.80;10.52;;;18.80;99.90;;;;;;7386593;19;20045;-90
2023/06/25 00:27:07;;;;;;;10.68;9.57;;;18.90;99.90;;;;;;7385765;19;20061;-90
2023/06/25 00:29:34;;;;;;;12.60;10.90;;;18.80;99.90;;;;;;7385836;19;20053;-89
2023/06/25 00:32:00;;;;;;;13.30;10.13;;;18.90;99.90;;;;;;7387978;19;20038;-89
2023/06/25 00:34:27;;;;;;;11.20;9.95;;;18.80;99.90;;;;;;7387442;19;20019;-90
2023/06/25 00:36:53;;;;;;;11.07;9.93;;;18.70;99.90;;;;;;7387547;19;21093;-90
2023/06/25 00:39:20;;;;;;;12.90;10.40;;;18.70;99.90;;;;;;7383761;19;20018;-90
2023/06/25 00:41:50;;;;;;;11.95;10.05;;;18.70;99.90;;;;;;7387261;19;20036;-89
2023/06/25 00:44:16;;;;;;;11.48;10.27;;;18.70;99.90;;;;;;7384714;19;20048;-90
2023/06/25 00:46:43;;;;;;;12.13;11.00;;;18.60;99.90;;;;;;7386172;19;20465;-90
2023/06/25 00:49:09;;;;;;;11.52;10.32;;;18.70;99.90;;;;;;7387561;19;20010;-90
2023/06/25 00:51:36;;;;;;;13.05;11.68;;;18.60;99.90;;;;;;7388309;19;20494;-89
2023/06/25 00:54:05;;;;;;;11.20;10.15;;;18.60;99.90;;;;;;7385745;19;20589;-90
2023/06/25 00:56:33;;;;;;;12.55;11.23;;;18.60;99.90;;;;;;7385245;19;20010;-89
2023/06/25 00:59:01;;;;;;;11.63;10.32;;;18.60;99.90;;;;;;7384296;19;20058;-91
2023/06/25 01:01:55;;;;;;;12.73;10.80;;;18.70;99.90;;;;;;7386394;19;20011;-90
2023/06/25 01:04:28;;;;;;;13.10;11.32;;;18.60;99.90;;;;;;7378036;19;20536;-91
2023/06/25 01:07:00;;;;;;;14.07;11.90;;;18.50;99.90;;;;;;7381631;19;20026;-90
2023/06/25 01:09:27;;;;;;;14.90;12.65;;;18.50;99.90;;;;;;7388156;19;20473;-90
2023/06/25 01:12:05;;;;;;;14.23;11.85;;;18.50;99.90;;;;;;7384242;19;20520;-91
2023/06/25 01:14:34;;;;;;;14.82;12.35;;;18.50;99.90;;;;;;7384427;19;20025;-91
2023/06/25 01:17:01;;;;;;;13.75;12.15;;;18.40;99.90;;;;;;7383331;19;20022;-90
2023/06/25 01:19:31;;;;;;;13.10;11.30;;;18.50;99.90;;;;;;7385476;19;20022;-90
2023/06/25 01:22:03;;;;;;;13.80;12.38;;;18.40;99.90;;;;;;7382768;19;20022;-89
2023/06/25 01:24:34;;;;;;;13.98;11.75;;;18.30;99.90;;;;;;7387827;19;20021;-88
2023/06/25 01:27:04;;;;;;;13.90;12.50;;;18.30;99.90;;;;;;7384338;19;20039;-88
2023/06/25 01:29:34;;;;;;;14.13;12.60;;;18.30;99.90;;;;;;7399815;19;20023;-86
2023/06/25 01:32:01;;;;;;;14.93;13.27;;;18.30;99.90;;;;;;7403323;19;20059;-87
2023/06/25 01:34:30;;;;;;;16.60;13.77;;;18.20;99.90;;;;;;7393757;19;20017;-88
2023/06/25 01:36:57;;;;;;;18.05;14.77;;;18.20;99.90;;;;;;7389811;19;20025;-89
2023/06/25 01:39:25;;;;;;;15.23;13.50;;;18.10;99.90;;;;;;7389586;19;20021;-89
2023/06/25 01:41:52;;;;;;;16.38;13.75;;;18.20;99.90;;;;;;7385578;19;20486;-89
2023/06/25 01:44:40;;;;;;;15.23;13.52;;;18.10;99.90;;;;;;7385658;19;20014;-88
2023/06/25 01:47:06;;;;;;;16.10;13.85;;;18.10;99.90;;;;;;7385719;19;20014;-89
2023/06/25 01:49:36;;;;;;;16.65;13.73;;;18.00;99.90;;;;;;7388288;19;20022;-88
2023/06/25 01:52:04;;;;;;;15.45;13.82;;;17.90;99.90;;;;;;7386643;19;20015;-88
2023/06/25 01:54:30;;;;;;;15.73;14.13;;;17.90;99.90;;;;;;7387778;19;20025;-90
2023/06/25 01:56:57;;;;;;;16.08;14.55;;;17.90;99.90;;;;;;7385293;19;20082;-90
2023/06/25 01:59:24;;;;;;;16.58;14.00;;;17.90;99.90;;;;;;7387027;19;20093;-90
2023/06/25 02:01:52;;;;;;;16.15;14.45;;;17.90;99.90;;;;;;7384370;19;20018;-89
2023/06/25 02:04:19;;;;;;;17.52;14.95;;;17.90;99.90;;;;;;7385732;19;20025;-89
2023/06/25 02:06:47;;;;;;;17.17;14.20;;;17.80;99.90;;;;;;7385638;19;20018;-89
2023/06/25 02:09:14;;;;;;;15.32;13.68;;;17.80;99.90;;;;;;7387043;19;20021;-90
2023/06/25 02:11:41;;;;;;;16.85;14.95;;;17.80;99.90;;;;;;7386194;19;20449;-88
2023/06/25 02:14:07;;;;;;;17.30;14.77;;;17.70;99.90;;;;;;7385025;19;20014;-89
2023/06/25 02:16:33;;;;;;;16.30;14.57;;;17.80;99.90;;;;;;7387137;19;20382;-89
2023/06/25 02:19:00;;;;;;;16.40;14.73;;;17.70;99.90;;;;;;7389240;19;20028;-89
2023/06/25 02:21:26;;;;;;;17.35;15.30;;;17.70;99.90;;;;;;7391650;19;20022;-89
2023/06/25 02:23:52;;;;;;;16.75;14.93;;;17.60;99.90;;;;;;7387661;19;20074;-89
2023/06/25 02:26:19;;;;;;;17.20;14.95;;;17.60;99.90;;;;;;7386363;19;20038;-88
2023/06/25 02:28:46;;;;;;;18.35;16.20;;;17.60;99.90;;;;;;7388928;19;20022;-89
2023/06/25 02:31:12;;;;;;;16.77;14.48;;;17.60;99.90;;;;;;7391039;19;20018;-88
2023/06/25 02:33:39;;;;;;;17.27;15.55;;;17.50;99.90;;;;;;7389584;19;20014;-90
2023/06/25 02:36:05;;;;;;;18.08;16.25;;;17.50;99.90;;;;;;7390781;19;20021;-89
2023/06/25 02:38:32;;;;;;;18.42;14.90;;;17.50;99.90;;;;;;7390350;19;20011;-87
2023/06/25 02:41:00;;;;;;;17.65;15.52;;;17.50;99.90;;;;;;7389697;19;20022;-88
2023/06/25 02:43:27;;;;;;;20.13;17.83;;;17.40;99.90;;;;;;7388142;19;20011;-90
2023/06/25 02:45:53;;;;;;;18.77;15.95;;;17.40;99.90;;;;;;7387151;19;20014;-89
2023/06/25 02:48:21;;;;;;;18.10;15.95;;;17.40;99.90;;;;;;7386846;19;20843;-90
2023/06/25 02:50:50;;;;;;;18.67;16.77;;;17.40;99.90;;;;;;7386463;19;20015;-89
2023/06/25 02:53:17;;;;;;;21.60;17.73;;;17.40;99.90;;;;;;7384753;19;20018;-89
2023/06/25 02:55:44;;;;;;;19.85;17.35;;;17.40;99.90;;;;;;7384147;19;20083;-89
2023/06/25 02:58:10;;;;;;;22.00;18.85;;;17.40;99.90;;;;;;7381922;19;20052;-89
2023/06/25 03:00:38;;;;;;;20.27;18.15;;;17.40;99.90;;;;;;7380090;19;20011;-89
2023/06/25 03:03:05;;;;;;;23.42;19.67;;;17.40;99.90;;;;;;7381249;19;20041;-88
2023/06/25 03:05:32;;;;;;;22.23;19.30;;;17.40;99.90;;;;;;7383040;19;20969;-89
2023/06/25 03:07:59;;;;;;;21.35;18.30;;;17.40;99.90;;;;;;7381774;19;20015;-88
2023/06/25 03:10:29;;;;;;;24.75;20.23;;;17.40;99.90;;;;;;7383137;19;20431;-88
2023/06/25 03:12:57;;;;;;;22.60;19.95;;;17.30;99.90;;;;;;7391426;19;20022;-90
2023/06/25 03:15:23;;;;;;;21.15;18.08;;;17.30;99.90;;;;;;7391117;19;20101;-89
2023/06/25 03:17:50;;;;;;;23.63;18.23;;;17.30;99.90;;;;;;7390625;19;20026;-88
2023/06/25 03:20:17;;;;;;;35.50;19.80;;;17.30;99.90;;;;;;7391128;19;20026;-89
2023/06/25 03:22:43;;;;;;;21.58;19.25;;;17.30;99.90;;;;;;7389316;19;20019;-89
2023/06/25 03:25:10;;;;;;;22.58;19.13;;;17.30;99.90;;;;;;7391518;19;20040;-90
2023/06/25 03:27:41;;;;;;;22.30;18.75;;;17.30;99.90;;;;;;7390583;19;20031;-89
2023/06/25 03:30:11;;;;;;;23.13;20.35;;;17.40;99.90;;;;;;7391949;19;20018;-88
2023/06/25 03:32:37;;;;;;;23.88;19.92;;;17.30;99.90;;;;;;7397965;19;20108;-87
2023/06/25 03:35:04;;;;;;;23.70;21.15;;;17.30;99.90;;;;;;7410471;19;20058;-87
2023/06/25 03:37:34;;;;;;;24.17;20.42;;;17.30;99.90;;;;;;7399634;19;20022;-89
2023/06/25 03:40:00;;;;;;;22.98;20.58;;;17.30;99.90;;;;;;7394941;19;20022;-89
2023/06/25 03:42:27;;;;;;;22.55;20.20;;;17.20;99.90;;;;;;7394265;19;20018;-89
2023/06/25 03:44:54;;;;;;;23.83;19.65;;;17.20;99.90;;;;;;7391286;19;20018;-89
2023/06/25 03:47:25;;;;;;;23.70;20.92;;;17.30;99.90;;;;;;7389499;19;20018;-88
2023/06/25 03:49:51;;;;;;;23.25;20.83;;;17.30;99.90;;;;;;7388132;19;20102;-89
2023/06/25 03:52:19;;;;;;;24.85;21.27;;;17.30;99.90;;;;;;7393421;19;20018;-90
2023/06/25 03:54:46;;;;;;;24.50;21.85;;;17.30;99.90;;;;;;7390033;19;20387;-89
2023/06/25 03:57:13;;;;;;;23.25;20.77;;;17.30;99.90;;;;;;7391746;19;20495;-90
2023/06/25 03:59:39;;;;;;;22.23;19.88;;;17.30;99.90;;;;;;7388548;19;20023;-89
2023/06/25 04:02:07;;;;;;;22.63;20.25;;;17.30;99.90;;;;;;7388917;19;20018;-90
2023/06/25 04:04:36;;;;;;;26.92;21.70;;;17.40;99.90;;;;;;7390618;19;20022;-89
2023/06/25 04:07:05;;;;;;;24.83;22.02;;;17.40;99.90;;;;;;7388473;19;20472;-90
2023/06/25 04:09:31;;;;;;;25.33;21.70;;;17.40;99.90;;;;;;7391059;19;20110;-88
2023/06/25 04:12:01;;;;;;;25.48;20.70;;;17.40;99.90;;;;;;7386846;19;20023;-90
2023/06/25 04:14:31;;;;;;;25.08;20.60;;;17.40;99.90;;;;;;7390442;19;20530;-90
2023/06/25 04:16:57;;;;;;;26.55;22.17;;;17.50;99.90;;;;;;7389868;19;20058;-90
2023/06/25 04:19:24;;;;;;;24.63;21.02;;;17.50;99.90;;;;;;7391143;19;20018;-90
2023/06/25 04:21:51;;;;;;;24.45;21.42;;;17.50;99.90;;;;;;7389393;19;20398;-89
2023/06/25 04:24:21;;;;;;;23.70;19.35;;;17.60;99.90;;;;;;7388111;19;20036;-89
2023/06/25 04:26:47;;;;;;;25.15;21.55;;;17.60;99.90;;;;;;7387052;19;20703;-89
2023/06/25 04:29:17;;;;;;;25.75;20.48;;;17.60;99.90;;;;;;7390892;19;20030;-90
2023/06/25 04:31:45;;;;;;;24.00;20.40;;;17.70;99.90;;;;;;7389594;19;20024;-88
2023/06/25 04:34:11;;;;;;;27.70;20.38;;;17.70;99.90;;;;;;7390509;19;20056;-89
2023/06/25 04:36:40;;;;;;;25.08;20.10;;;17.80;99.90;;;;;;7389745;19;20018;-91
2023/06/25 04:39:08;;;;;;;21.48;19.00;;;17.90;99.90;;;;;;7389674;19;20193;-89
2023/06/25 04:41:36;;;;;;;21.52;19.17;;;17.90;99.90;;;;;;7391117;19;20070;-89
2023/06/25 04:44:03;;;;;;;20.98;18.77;;;18.00;99.90;;;;;;7387496;19;20048;-88
2023/06/25 04:46:30;;;;;;;21.33;17.25;;;18.10;99.90;;;;;;7389707;19;20037;-89
2023/06/25 04:49:00;;;;;;;20.00;17.73;;;18.10;99.90;;;;;;7390220;19;20014;-90
2023/06/25 04:51:26;;;;;;;19.33;17.17;;;18.20;99.90;;;;;;7389555;19;20017;-89
2023/06/25 04:53:53;;;;;;;18.52;16.55;;;18.30;99.90;;;;;;7387709;19;20022;-88
2023/06/25 04:56:19;;;;;;;21.13;17.65;;;18.40;99.90;;;;;;7389667;19;20022;-89
2023/06/25 04:58:46;;;;;;;19.73;17.25;;;18.50;99.90;;;;;;7388934;19;20021;-90
2023/06/25 05:01:12;;;;;;;18.95;16.95;;;18.60;99.90;;;;;;7388038;19;20014;-90
2023/06/25 05:03:39;;;;;;;19.30;16.33;;;18.70;99.90;;;;;;7381531;19;20066;-88
2023/06/25 05:06:06;;;;;;;20.00;15.25;;;18.80;99.90;;;;;;7385659;19;20039;-88
2023/06/25 05:08:33;;;;;;;18.45;15.48;;;18.90;99.90;;;;;;7385046;19;20018;-89
2023/06/25 05:10:59;;;;;;;17.00;14.80;;;19.10;99.90;;;;;;7390622;19;20031;-89
2023/06/25 05:13:30;;;;;;;17.88;15.05;;;19.50;99.90;;;;;;7389294;19;20027;-89
2023/06/25 05:15:57;;;;;;;15.82;14.05;;;19.80;99.90;;;;;;7388544;19;20022;-89
2023/06/25 05:18:23;;;;;;;20.27;14.00;;;20.20;99.90;;;;;;7388720;19;20069;-90
2023/06/25 05:20:50;;;;;;;16.92;14.23;;;20.50;99.90;;;;;;7387271;19;20032;-94
2023/06/25 05:23:16;;;;;;;16.70;14.52;;;20.70;99.90;;;;;;7397512;19;20018;-88
2023/06/25 05:25:47;;;;;;;14.65;13.00;;;20.80;99.90;;;;;;7395400;19;20018;-94
2023/06/25 05:28:20;;;;;;;15.32;13.73;;;21.10;99.90;;;;;;7401577;19;20079;-93
2023/06/25 05:31:12;;;;;;;15.27;13.68;;;21.30;99.90;;;;;;7402294;19;20243;-92
2023/06/25 05:33:46;;;;;;;14.48;12.82;;;21.40;99.90;;;;;;7401791;19;20385;-93
2023/06/25 05:36:14;;;;;;;16.23;14.20;;;21.70;99.90;;;;;;7406815;19;20007;-94
2023/06/25 05:38:40;;;;;;;15.80;13.63;;;21.80;99.90;;;;;;7407512;19;20372;-96
2023/06/25 05:41:31;;;;;;;16.77;12.63;;;22.00;99.90;;;;;;7396742;19;20503;-95
2023/06/25 05:44:05;;;;;;;39.63;35.63;;;22.20;99.90;;;;;;7400042;19;20014;-96
2023/06/25 05:46:37;;;;;;;132.80;120.32;;;22.30;99.90;;;;;;7396852;19;21039;-94
2023/06/25 05:49:03;;;;;;;20.13;16.50;;;22.40;99.90;;;;;;7398161;19;20724;-95
2023/06/25 05:51:36;;;;;;;18.45;16.60;;;22.50;99.90;;;;;;7399284;19;20034;-96
2023/06/25 05:54:04;;;;;;;26.55;23.95;;;22.70;99.90;;;;;;7403675;19;20014;-95
2023/06/25 05:56:37;;;;;;;15.02;13.52;;;22.80;99.90;;;;;;7403702;19;20041;-95
2023/06/25 05:59:27;;;;;;;17.17;15.40;;;23.00;99.90;;;;;;7402951;19;20065;-96
2023/06/25 06:02:16;;;;;;;18.80;16.02;;;23.00;99.90;;;;;;7406396;19;20007;-96
2023/06/25 06:05:53;;;;;;;19.13;14.95;;;23.20;99.90;;;;;;7401779;19;20029;-96
2023/06/25 06:08:57;;;;;;;18.55;16.65;;;23.40;99.90;;;;;;7406464;19;20063;-95
2023/06/25 06:11:24;;;;;;;15.50;13.88;;;23.60;99.90;;;;;;7382067;19;20015;-72
2023/06/25 06:13:50;;;;;;;15.93;14.32;;;23.70;99.90;;;;;;7372109;19;20062;-73
2023/06/25 06:16:16;;;;;;;16.10;14.07;;;24.00;99.90;;;;;;7372119;19;20010;-73
2023/06/25 06:18:43;;;;;;;16.73;15.10;;;24.10;99.90;;;;;;7373252;19;20014;-69
2023/06/25 06:21:09;;;;;;;86.22;78.47;;;24.10;99.90;;;;;;7376633;19;20113;-71
2023/06/25 06:23:35;;;;;;;18.05;16.25;;;24.30;99.90;;;;;;7375033;19;20019;-71
2023/06/25 06:26:01;;;;;;;19.20;17.20;;;24.40;99.90;;;;;;7375854;19;20022;-72
2023/06/25 06:28:28;;;;;;;33.40;30.00;;;24.40;99.90;;;;;;7377143;19;20033;-72
2023/06/25 06:30:55;;;;;;;16.75;15.10;;;24.40;99.90;;;;;;7377137;19;20508;-71
2023/06/25 06:33:21;;;;;;;17.13;15.57;;;24.50;99.90;;;;;;7376603;19;20018;-72
2023/06/25 06:35:47;;;;;;;18.95;17.10;;;24.60;99.90;;;;;;7377586;19;20030;-72
2023/06/25 06:38:16;;;;;;;15.82;14.32;;;24.70;99.90;;;;;;7376274;19;20014;-72
2023/06/25 06:40:42;;;;;;;20.52;18.55;;;24.80;99.90;;;;;;7374468;19;20010;-72
2023/06/25 06:43:08;;;;;;;15.50;14.10;;;24.90;99.90;;;;;;7375497;19;20474;-71
2023/06/25 06:45:35;;;;;;;18.00;15.18;;;25.00;99.90;;;;;;7372963;19;20019;-72
2023/06/25 06:48:01;;;;;;;14.80;13.30;;;25.10;99.90;;;;;;7371323;19;20014;-72
2023/06/25 06:50:27;;;;;;;16.38;14.68;;;25.20;99.90;;;;;;7374473;19;20022;-71
2023/06/25 06:52:53;;;;;;;15.40;13.80;;;25.30;99.90;;;;;;7373996;19;20611;-72
2023/06/25 06:55:20;;;;;;;15.77;13.98;;;25.30;99.90;;;;;;7376772;19;20049;-71
2023/06/25 06:57:46;;;;;;;20.55;18.52;;;25.50;99.90;;;;;;7373769;19;20014;-72
2023/06/25 07:00:15;;;;;;;14.68;13.18;;;25.60;99.90;;;;;;7375982;19;20415;-72
2023/06/25 07:02:41;;;;;;;23.25;21.10;;;25.90;99.90;;;;;;7375065;19;20019;-72
2023/06/25 07:05:08;;;;;;;42.53;38.65;;;26.10;99.90;;;;;;7371349;19;20033;-73
2023/06/25 07:07:34;;;;;;;24.70;22.20;;;26.30;99.90;;;;;;7364021;19;20387;-73
2023/06/25 07:10:00;;;;;;;40.08;36.40;;;26.40;99.90;;;;;;7365697;19;20591;-69
2023/06/25 07:12:27;;;;;;;17.13;15.45;;;26.50;99.90;;;;;;7374888;19;20735;-74
2023/06/25 07:14:54;;;;;;;18.30;16.40;;;26.70;99.90;;;;;;7372692;19;20040;-74
2023/06/25 07:17:20;;;;;;;20.98;19.13;;;26.90;99.90;;;;;;7371443;19;20028;-72
2023/06/25 07:19:46;;;;;;;16.45;15.02;;;26.90;99.90;;;;;;7372477;19;20467;-73
2023/06/25 07:22:13;;;;;;;18.23;16.48;;;26.90;99.90;;;;;;7375434;19;20896;-66
2023/06/25 07:24:39;;;;;;;20.35;18.45;;;27.00;99.90;;;;;;7369504;19;20023;-66
2023/06/25 07:27:05;;;;;;;21.30;19.40;;;27.30;99.90;;;;;;7371574;19;20023;-66
2023/06/25 07:29:32;;;;;;;15.00;13.65;;;27.50;99.90;;;;;;7372912;19;20022;-73
2023/06/25 07:31:58;;;;;;;15.45;13.95;;;27.70;99.90;;;;;;7372527;19;20797;-73
2023/06/25 07:34:24;;;;;;;19.35;17.65;;;27.80;99.90;;;;;;7375112;19;20097;-73
2023/06/25 07:36:50;;;;;;;15.38;13.20;;;28.10;99.90;;;;;;7369595;19;20093;-73
2023/06/25 07:39:25;;;;;;;15.38;13.88;;;28.30;99.90;;;;;;7369518;19;20019;-74
2023/06/25 07:41:53;;;;;;;14.75;13.35;;;28.50;99.90;;;;;;7370329;19;20026;-73
2023/06/25 07:44:19;;;;;;;13.15;11.85;;;28.50;99.90;;;;;;7373281;19;20038;-75
2023/06/25 07:46:45;;;;;;;15.60;14.00;;;28.60;99.90;;;;;;7371301;19;20336;-72
2023/06/25 07:49:12;;;;;;;13.52;12.18;;;28.80;99.90;;;;;;7371496;19;20568;-72
2023/06/25 07:51:38;;;;;;;13.52;12.15;;;28.70;99.90;;;;;;7371289;19;20039;-72
2023/06/25 07:54:04;;;;;;;15.38;13.73;;;29.00;99.90;;;;;;7373954;19;20022;-66
2023/06/25 07:56:30;;;;;;;13.50;12.35;;;29.10;99.90;;;;;;7372228;19;20014;-68
2023/06/25 07:58:57;;;;;;;14.52;13.13;;;29.20;99.90;;;;;;7379465;19;20572;-72
2023/06/25 08:01:23;;;;;;;17.95;16.38;;;29.70;99.90;;;;;;7373804;19;20061;-68
2023/06/25 08:03:49;;;;;;;13.68;12.30;;;29.80;99.90;;;;;;7358314;19;20018;-73
2023/06/25 08:06:15;;;;;;;24.48;22.35;;;29.80;99.40;;;;;;7370870;19;20021;-73
2023/06/25 08:08:42;;;;;;;13.40;12.07;;;30.20;98.70;;;;;;7379837;19;20389;-73
2023/06/25 08:11:08;;;;;;;12.77;11.65;;;30.10;97.60;;;;;;7375244;19;20361;-72
2023/06/25 08:13:35;;;;;;;12.65;11.48;;;30.00;96.10;;;;;;7375947;19;20363;-73
2023/06/25 08:16:01;;;;;;;24.75;22.48;;;29.90;95.70;;;;;;7377085;19;20018;-73
2023/06/25 08:18:27;;;;;;;12.00;10.63;;;30.10;95.30;;;;;;7378615;19;20026;-72
2023/06/25 08:20:53;;;;;;;10.98;9.90;;;30.20;94.90;;;;;;7378411;19;20483;-72
2023/06/25 08:23:23;;;;;;;13.25;12.00;;;30.50;94.40;;;;;;7378724;19;20069;-72
2023/06/25 08:25:49;;;;;;;10.55;9.57;;;30.50;92.80;;;;;;7382010;19;20010;-71
2023/06/25 08:28:15;;;;;;;50.95;46.75;;;30.70;91.70;;;;;;7381227;19;20043;-72
2023/06/25 08:30:42;;;;;;;30.20;27.60;;;30.90;90.30;;;;;;7377556;19;20022;-72
2023/06/25 08:33:08;;;;;;;12.95;11.65;;;31.00;90.00;;;;;;7379132;19;20026;-72
2023/06/25 08:35:34;;;;;;;10.50;9.45;;;31.10;90.10;;;;;;7378960;19;20015;-72
2023/06/25 08:38:00;;;;;;;11.85;10.80;;;31.20;85.20;;;;;;7377711;19;20015;-71
2023/06/25 08:40:29;;;;;;;11.77;9.25;;;31.30;82.00;;;;;;7370407;19;20051;-70
2023/06/25 08:42:55;;;;;;;12.30;9.23;;;31.30;78.10;;;;;;7376979;19;20024;-66
2023/06/25 08:45:21;;;;;;;8.88;7.97;;;31.30;77.10;;;;;;7381969;19;20014;-66
2023/06/25 08:47:55;;;;;;;10.20;9.23;;;31.50;73.90;;;;;;7379905;19;20472;-68
2023/06/25 08:50:21;;;;;;;12.57;11.38;;;31.70;67.80;;;;;;7378618;19;20030;-60
2023/06/25 08:52:51;;;;;;;8.00;6.47;;;31.80;65.30;;;;;;7381316;19;20021;-65
2023/06/25 08:55:19;;;;;;;9.65;8.30;;;31.70;64.10;;;;;;7377849;19;20081;-65
2023/06/25 08:57:46;;;;;;;9.98;7.20;;;31.60;64.60;;;;;;7380579;19;20023;-65
2023/06/25 09:00:13;;;;;;;6.85;6.15;;;31.90;63.60;;;;;;7376060;19;20015;-66
2023/06/25 09:02:39;;;;;;;7.72;6.80;;;31.90;65.00;;;;;;7373117;19;20685;-66
2023/06/25 09:05:07;;;;;;;7.68;6.07;;;31.80;61.50;;;;;;7376020;19;20022;-65
2023/06/25 09:07:36;;;;;;;7.07;5.07;;;32.10;60.40;;;;;;7379474;19;20468;-66
2023/06/25 09:10:07;;;;;;;5.15;4.47;;;32.40;61.40;;;;;;7373736;19;20128;-66
2023/06/25 09:12:34;;;;;;;6.72;4.57;;;32.80;59.00;;;;;;7375606;19;20018;-65
2023/06/25 09:15:01;;;;;;;6.00;4.43;;;32.80;54.70;;;;;;7375684;19;20408;-65
2023/06/25 09:17:27;;;;;;;6.60;5.25;;;32.40;53.20;;;;;;7376598;19;20025;-66
2023/06/25 09:19:54;;;;;;;6.13;5.53;;;32.60;53.50;;;;;;7375890;19;20676;-66
2023/06/25 09:22:20;;;;;;;10.73;6.28;;;32.60;52.80;;;;;;7374326;19;20894;-65
2023/06/25 09:24:50;;;;;;;6.22;5.53;;;32.70;51.00;;;;;;7377364;19;20102;-66
2023/06/25 09:27:20;;;;;;;6.22;4.07;;;32.80;51.60;;;;;;7376435;19;20030;-66
2023/06/25 09:29:46;;;;;;;6.03;4.55;;;33.10;51.40;;;;;;7380554;19;20015;-66
2023/06/25 09:32:12;;;;;;;7.05;4.60;;;33.10;50.70;;;;;;7373829;19;20022;-66
2023/06/25 09:34:42;;;;;;;6.10;4.55;;;33.40;48.40;;;;;;7379128;19;20026;-66
2023/06/25 09:37:08;;;;;;;5.77;4.23;;;33.30;49.00;;;;;;7374660;19;20024;-65
2023/06/25 09:39:34;;;;;;;7.78;5.25;;;33.40;50.00;;;;;;7379255;19;20357;-65
2023/06/25 09:42:01;;;;;;;6.80;5.72;;;33.50;49.20;;;;;;7370961;19;20023;-66
2023/06/25 09:44:28;;;;;;;7.15;5.75;;;33.70;47.90;;;;;;7375794;19;20618;-66
2023/06/25 09:47:05;;;;;;;7.30;5.13;;;33.70;47.30;;;;;;7371726;19;20022;-64
2023/06/25 09:49:33;;;;;;;7.72;4.75;;;33.70;46.70;;;;;;7375756;19;20019;-67
2023/06/25 09:52:07;;;;;;;7.97;6.78;;;33.60;45.60;;;;;;7377360;19;20018;-66
2023/06/25 09:54:38;;;;;;;7.53;6.72;;;33.50;45.80;;;;;;7376113;19;20454;-67
2023/06/25 09:57:09;;;;;;;7.38;4.65;;;33.50;46.30;;;;;;7377126;19;20010;-68
2023/06/25 09:59:36;;;;;;;5.75;4.38;;;33.70;46.50;;;;;;7375053;19;20421;-67
2023/06/25 10:02:07;;;;;;;8.98;5.53;;;33.90;46.00;;;;;;7372634;19;20047;-68
2023/06/25 10:04:34;;;;;;;6.70;4.90;;;34.10;46.10;;;;;;7375821;19;20022;-67
2023/06/25 10:07:02;;;;;;;6.38;4.90;;;34.00;45.90;;;;;;7376569;19;20365;-67
2023/06/25 10:09:28;;;;;;;5.78;4.57;;;34.20;46.70;;;;;;7374140;19;20508;-67
2023/06/25 10:11:58;;;;;;;6.78;5.53;;;34.50;46.60;;;;;;7366607;19;20022;-71
2023/06/25 10:14:24;;;;;;;7.47;5.38;;;34.70;45.80;;;;;;7372712;19;20420;-68
2023/06/25 10:16:53;;;;;;;7.53;4.68;;;34.90;44.70;;;;;;7372160;19;20021;-66
2023/06/25 10:19:24;;;;;;;6.25;5.53;;;35.00;43.50;;;;;;7374992;19;20026;-71
2023/06/25 10:22:07;;;;;;;7.05;4.55;;;35.00;43.40;;;;;;7368552;19;20019;-69
2023/06/25 10:24:53;;;;;;;6.55;4.53;;;35.30;44.00;;;;;;7372931;19;20390;-65
2023/06/25 10:27:25;;;;;;;6.28;5.32;;;35.40;44.70;;;;;;7374922;19;20055;-70
2023/06/25 10:29:56;;;;;;;6.43;4.75;;;35.40;43.10;;;;;;7375014;19;20361;-69
2023/06/25 10:32:24;;;;;;;6.88;5.10;;;35.30;41.80;;;;;;7370891;19;20584;-67
2023/06/25 10:34:55;;;;;;;6.25;4.90;;;35.00;42.00;;;;;;7370898;19;20561;-69
2023/06/25 10:37:27;;;;;;;7.30;5.60;;;35.00;43.30;;;;;;7365198;19;20020;-68
2023/06/25 10:40:04;;;;;;;8.93;5.88;;;35.10;41.40;;;;;;7366658;19;20019;-63
2023/06/25 10:42:31;;;;;;;5.95;5.10;;;34.90;41.80;;;;;;7369871;19;20576;-63
2023/06/25 10:44:59;;;;;;;7.55;4.78;;;35.00;42.00;;;;;;7367086;19;20014;-63
2023/06/25 10:47:25;;;;;;;5.57;4.65;;;35.00;42.10;;;;;;7368916;19;20038;-62
2023/06/25 10:49:52;;;;;;;5.35;3.95;;;34.90;42.50;;;;;;7369881;19;20082;-62
2023/06/25 10:52:19;;;;;;;7.50;4.57;;;35.40;43.00;;;;;;7370402;19;20481;-62
2023/06/25 10:54:45;;;;;;;8.90;6.93;;;35.50;42.70;;;;;;7371906;19;20018;-63
2023/06/25 10:57:15;;;;;;;8.35;4.70;;;35.30;42.80;;;;;;7373651;19;20030;-63
2023/06/25 10:59:45;;;;;;;7.38;5.43;;;35.70;41.90;;;;;;7375208;19;20031;-63
2023/06/25 11:02:17;;;;;;;6.95;5.20;;;35.60;40.90;;;;;;7370857;19;20046;-63
2023/06/25 11:04:54;;;;;;;12.65;11.48;;;35.40;41.80;;;;;;7370496;19;20035;-61
2023/06/25 11:07:21;;;;;;;7.72;5.78;;;35.10;42.60;;;;;;7371868;19;20905;-62
2023/06/25 11:09:54;;;;;;;10.18;8.88;;;35.20;40.90;;;;;;7370109;19;21370;-67
2023/06/25 11:12:20;;;;;;;12.50;11.27;;;35.40;40.80;;;;;;7372537;19;20022;-66
2023/06/25 11:14:47;;;;;;;7.32;6.25;;;35.20;40.60;;;;;;7369279;19;20045;-65
2023/06/25 11:17:17;;;;;;;5.78;5.20;;;35.30;40.30;;;;;;7374853;19;20014;-66
2023/06/25 11:19:49;;;;;;;7.03;5.53;;;35.50;40.90;;;;;;7374020;19;20042;-66
2023/06/25 11:22:15;;;;;;;9.65;6.65;;;35.60;41.30;;;;;;7366701;19;20018;-66
2023/06/25 11:24:41;;;;;;;6.45;5.63;;;35.60;40.40;;;;;;7367844;19;20018;-65
2023/06/25 11:27:08;;;;;;;9.18;7.30;;;35.60;39.70;;;;;;7371742;19;20018;-66
2023/06/25 11:29:39;;;;;;;9.15;7.20;;;36.00;39.40;;;;;;7367564;19;20540;-63
2023/06/25 11:32:08;;;;;;;7.60;5.95;;;36.00;40.80;;;;;;7371428;19;20545;-63
2023/06/25 11:34:36;;;;;;;6.07;5.32;;;35.80;39.90;;;;;;7372952;19;20015;-64
2023/06/25 11:37:13;;;;;;;6.65;4.80;;;36.00;39.60;;;;;;7374519;19;20031;-62
2023/06/25 11:39:47;;;;;;;5.35;4.50;;;35.90;39.60;;;;;;7374678;19;20022;-63
2023/06/25 11:42:24;;;;;;;6.90;5.57;;;35.70;40.60;;;;;;7377767;19;20018;-62
2023/06/25 11:45:05;;;;;;;7.07;5.45;;;35.80;40.10;;;;;;7372898;19;20026;-62
2023/06/25 11:47:33;;;;;;;5.72;4.30;;;35.70;40.30;;;;;;7378726;19;20022;-62
2023/06/25 11:50:01;;;;;;;6.05;4.78;;;36.00;40.10;;;;;;7377883;19;20018;-63
2023/06/25 11:52:27;;;;;;;6.65;4.90;;;36.20;40.90;;;;;;7380097;19;20014;-63
2023/06/25 11:54:53;;;;;;;5.25;4.28;;;36.30;41.00;;;;;;7372845;19;20042;-64
2023/06/25 11:57:20;;;;;;;5.75;3.75;;;36.30;40.80;;;;;;7372129;19;20026;-65
2023/06/25 11:59:46;;;;;;;4.80;3.90;;;36.50;39.90;;;;;;7377156;19;20022;-63
2023/06/25 12:02:12;;;;;;;5.97;3.95;;;36.40;41.40;;;;;;7379475;19;20485;-63
2023/06/25 12:04:39;;;;;;;7.38;6.63;;;36.40;40.60;;;;;;7375852;19;20539;-64
2023/06/25 12:07:05;;;;;;;28.60;26.25;;;36.40;39.80;;;;;;7378820;19;20549;-63
2023/06/25 12:09:31;;;;;;;9.15;7.72;;;36.40;39.10;;;;;;7375226;19;20019;-64
2023/06/25 12:11:57;;;;;;;5.75;4.00;;;36.50;39.90;;;;;;7381070;19;20051;-63
2023/06/25 12:14:24;;;;;;;4.57;3.72;;;36.30;39.60;;;;;;7376909;19;20037;-62
2023/06/25 12:16:50;;;;;;;6.15;5.25;;;36.30;38.80;;;;;;7379004;19;20010;-63
2023/06/25 12:19:17;;;;;;;4.45;3.70;;;36.60;38.70;;;;;;7372744;19;20015;-63
2023/06/25 12:21:45;;;;;;;4.88;4.20;;;36.50;37.30;;;;;;7378898;19;20022;-62
2023/06/25 12:24:11;;;;;;;6.43;3.95;;;36.30;38.40;;;;;;7369260;19;20018;-63
2023/06/25 12:26:38;;;;;;;10.55;4.82;;;36.30;38.90;;;;;;7369350;19;20022;-63
2023/06/25 12:29:05;;;;;;;7.60;5.22;;;36.40;40.30;;;;;;7370669;19;20078;-65
2023/06/25 12:31:32;;;;;;;6.20;4.85;;;36.60;39.50;;;;;;7375218;19;20022;-62
2023/06/25 12:33:58;;;;;;;5.15;4.45;;;36.30;39.50;;;;;;7372706;19;20485;-63
2023/06/25 12:36:24;;;;;;;5.50;4.43;;;36.60;40.30;;;;;;7372983;19;20056;-63
2023/06/25 12:38:51;;;;;;;5.00;4.45;;;36.50;38.70;;;;;;7370906;19;20518;-63
2023/06/25 12:41:17;;;;;;;4.90;4.35;;;36.80;39.30;;;;;;7375538;19;20350;-63